Map

Track Data

SID SEASON NUMBER BASIN SUBBASIN NAME ISO_TIME NATURE LAT LON WMO_WIND WMO_PRES WMO_AGENCY TRACK_TYPE DIST2LAND LANDFALL IFLAG USA_AGENCY USA_ATCF_ID USA_LAT USA_LON USA_RECORD USA_STATUS USA_WIND USA_PRES USA_SSHS USA_R34_NE USA_R34_SE USA_R34_SW USA_R34_NW USA_R50_NE USA_R50_SE USA_R50_SW USA_R50_NW USA_R64_NE USA_R64_SE USA_R64_SW USA_R64_NW USA_POCI USA_ROCI USA_RMW USA_EYE TOKYO_LAT TOKYO_LON TOKYO_GRADE TOKYO_WIND TOKYO_PRES TOKYO_R50_DIR TOKYO_R50_LONG TOKYO_R50_SHORT TOKYO_R30_DIR TOKYO_R30_LONG TOKYO_R30_SHORT TOKYO_LAND CMA_LAT CMA_LON CMA_CAT CMA_WIND CMA_PRES HKO_LAT HKO_LON HKO_CAT HKO_WIND HKO_PRES NEWDELHI_LAT NEWDELHI_LON NEWDELHI_GRADE NEWDELHI_WIND NEWDELHI_PRES NEWDELHI_CI NEWDELHI_DP NEWDELHI_POCI REUNION_LAT REUNION_LON REUNION_TYPE REUNION_WIND REUNION_PRES REUNION_TNUM REUNION_CI REUNION_RMW REUNION_R34_NE REUNION_R34_SE REUNION_R34_SW REUNION_R34_NW REUNION_R50_NE REUNION_R50_SE REUNION_R50_SW REUNION_R50_NW REUNION_R64_NE REUNION_R64_SE REUNION_R64_SW REUNION_R64_NW BOM_LAT BOM_LON BOM_TYPE BOM_WIND BOM_PRES BOM_TNUM BOM_CI BOM_RMW BOM_R34_NE BOM_R34_SE BOM_R34_SW BOM_R34_NW BOM_R50_NE BOM_R50_SE BOM_R50_SW BOM_R50_NW BOM_R64_NE BOM_R64_SE BOM_R64_SW BOM_R64_NW BOM_ROCI BOM_POCI BOM_EYE BOM_POS_METHOD BOM_PRES_METHOD NADI_LAT NADI_LON NADI_CAT NADI_WIND NADI_PRES WELLINGTON_LAT WELLINGTON_LON WELLINGTON_WIND WELLINGTON_PRES DS824_LAT DS824_LON DS824_STAGE DS824_WIND DS824_PRES TD9636_LAT TD9636_LON TD9636_STAGE TD9636_WIND TD9636_PRES TD9635_LAT TD9635_LON TD9635_WIND TD9635_PRES TD9635_ROCI NEUMANN_LAT NEUMANN_LON NEUMANN_CLASS NEUMANN_WIND NEUMANN_PRES MLC_LAT MLC_LON MLC_CLASS MLC_WIND MLC_PRES USA_GUST BOM_GUST BOM_GUST_PER REUNION_GUST REUNION_GUST_PER USA_SEAHGT USA_SEARAD_NE USA_SEARAD_SE USA_SEARAD_SW USA_SEARAD_NW STORM_SPEED STORM_DIR
1888178N26267 1888 23 NA GM NOT_NAMED 1888-06-25 12:00:00 TS 25.5000 -93.2000 main 394 392 _____________O -1 25.5000 -93.2000 TD 30 8 34
1888178N26267 1888 23 NA GM NOT_NAMED 1888-06-25 15:00:00 TS 25.8476 -92.9403 main 417 369 _____________P -1 25.8476 -92.9403 TD 30 8 33
1888178N26267 1888 23 NA GM NOT_NAMED 1888-06-25 18:00:00 TS 26.2000 -92.7000 main 369 330 _____________O -1 26.2000 -92.7000 TD 30 8 30
1888178N26267 1888 23 NA GM NOT_NAMED 1888-06-25 21:00:00 TS 26.5574 -92.4924 main 320 281 _____________P -1 26.5574 -92.4924 TD 32 8 27
1888178N26267 1888 23 NA GM NOT_NAMED 1888-06-26 00:00:00 TS 26.9000 -92.3000 main 281 242 _____________O -1 26.9000 -92.3000 TS 35 7 29
1888178N26267 1888 23 NA GM NOT_NAMED 1888-06-26 03:00:00 TS 27.2000 -92.0998 main 242 203 _____________P -1 27.2000 -92.0998 TS 35 7 31
1888178N26267 1888 23 NA GM NOT_NAMED 1888-06-26 06:00:00 TS 27.5000 -91.9000 main 203 160 _____________O -1 27.5000 -91.9000 TS 35 7 25
1888178N26267 1888 23 NA GM NOT_NAMED 1888-06-26 09:00:00 TS 27.8722 -91.7448 main 155 116 _____________P -1 27.8722 -91.7448 TS 35 8 27
1888178N26267 1888 23 NA GM NOT_NAMED 1888-06-26 12:00:00 TS 28.2000 -91.5000 main 116 80 _____________O -1 28.2000 -91.5000 TS 35 8 51
1888178N26267 1888 23 NA GM NOT_NAMED 1888-06-26 15:00:00 TS 28.3802 -91.0448 main 78 66 _____________P -1 28.3802 -91.0448 TS 35 9 71
1888178N26267 1888 23 NA GM NOT_NAMED 1888-06-26 18:00:00 TS 28.5000 -90.5000 main 67 55 _____________O -1 28.5000 -90.5000 TS 35 1005 9 76
1888178N26267 1888 23 NA GM NOT_NAMED 1888-06-26 21:00:00 TS 28.6123 -89.9993 main 56 34 _____________P -1 28.6123 -89.9993 TS 35 9 71
1888178N26267 1888 23 NA GM NOT_NAMED 1888-06-27 00:00:00 TS 28.8000 -89.5000 main 34 0 _____________O -1 28.8000 -89.5000 TS 35 10 58
1888178N26267 1888 23 NA GM NOT_NAMED 1888-06-27 03:00:00 TS 29.1548 -89.0000 main 9 9 _____________P -1 29.1548 -89.0000 TS 35 12 48
1888178N26267 1888 23 NA GM NOT_NAMED 1888-06-27 06:00:00 TS 29.6000 -88.5000 main 73 22 _____________O -1 29.6000 -88.5000 TS 35 13 44
1888178N26267 1888 23 NA GM NOT_NAMED 1888-06-27 09:00:00 TS 30.0726 -87.9704 main 11 0 _____________P -1 30.0726 -87.9704 TS 35 13 44
1888178N26267 1888 23 NA NA NOT_NAMED 1888-06-27 12:00:00 TS 30.5000 -87.5000 main 0 0 _____________O -1 30.5000 -87.5000 TS 35 10 44
1888178N26267 1888 23 NA NA NOT_NAMED 1888-06-27 15:00:00 TS 30.7797 -87.1692 main 0 0 _____________P -1 30.7797 -87.1692 TS 35 7 46
1888178N26267 1888 23 NA NA NOT_NAMED 1888-06-27 18:00:00 TS 31.0000 -86.9000 main 0 0 _____________O -1 31.0000 -86.9000 TS 35 7 46
1888178N26267 1888 23 NA NA NOT_NAMED 1888-06-27 21:00:00 TS 31.2499 -86.5998 main 0 0 _____________P -1 31.2499 -86.5998 TS 32 7 46
1888178N26267 1888 23 NA NA NOT_NAMED 1888-06-28 00:00:00 TS 31.5000 -86.3000 main 0 0 _____________O -1 31.5000 -86.3000 TD 30 7 46
1888178N26267 1888 23 NA NA NOT_NAMED 1888-06-28 03:00:00 TS 31.7500 -85.9924 main 0 0 _____________P -1 31.7500 -85.9924 TD 30 7 46
1888178N26267 1888 23 NA NA NOT_NAMED 1888-06-28 06:00:00 TS 32.0000 -85.7000 main 0 0 _____________O -1 32.0000 -85.7000 TD 30 7 43
1888178N26267 1888 23 NA NA NOT_NAMED 1888-06-28 09:00:00 TS 32.2501 -85.4402 main 0 0 _____________P -1 32.2501 -85.4402 TD 27 7 40
1888178N26267 1888 23 NA NA NOT_NAMED 1888-06-28 12:00:00 TS 32.5000 -85.2000 main 0 _____________O -1 32.5000 -85.2000 TD 25 6 39

About IBTrACS Database

This database is a web-friendly format of International Best Track Archive for Climate Stewardship (IBTrACS), a global best track data archive curated by NOAA dating back to 1842.

Updated: 2021-12-06